sensor_id;sensor_type;location;lat;lon;timestamp;P1;durP1;ratioP1;P2;durP2;ratioP2
19867;SDS011;10096;51.112;6.776;2023-02-11T00:01:18;26.63;;;20.83;;
19867;SDS011;10096;51.112;6.776;2023-02-11T00:03:50;27.97;;;20.30;;
19867;SDS011;10096;51.112;6.776;2023-02-11T00:06:21;28.83;;;20.47;;
19867;SDS011;10096;51.112;6.776;2023-02-11T00:08:49;27.33;;;20.27;;
19867;SDS011;10096;51.112;6.776;2023-02-11T00:11:17;28.03;;;20.03;;
19867;SDS011;10096;51.112;6.776;2023-02-11T00:13:46;29.63;;;19.90;;
19867;SDS011;10096;51.112;6.776;2023-02-11T00:16:14;24.97;;;20.67;;
19867;SDS011;10096;51.112;6.776;2023-02-11T00:18:42;26.63;;;20.00;;
19867;SDS011;10096;51.112;6.776;2023-02-11T00:21:10;25.77;;;19.67;;
19867;SDS011;10096;51.112;6.776;2023-02-11T00:23:40;29.17;;;21.27;;
19867;SDS011;10096;51.112;6.776;2023-02-11T00:26:10;26.40;;;19.87;;
19867;SDS011;10096;51.112;6.776;2023-02-11T00:28:38;27.23;;;20.43;;
19867;SDS011;10096;51.112;6.776;2023-02-11T00:31:05;26.07;;;20.80;;
19867;SDS011;10096;51.112;6.776;2023-02-11T00:33:32;26.90;;;20.30;;
19867;SDS011;10096;51.112;6.776;2023-02-11T00:36:02;27.40;;;20.27;;
19867;SDS011;10096;51.112;6.776;2023-02-11T00:38:30;26.33;;;19.53;;
19867;SDS011;10096;51.112;6.776;2023-02-11T00:40:58;29.10;;;21.07;;
19867;SDS011;10096;51.112;6.776;2023-02-11T00:43:25;28.00;;;20.83;;
19867;SDS011;10096;51.112;6.776;2023-02-11T00:45:52;27.93;;;20.90;;
19867;SDS011;10096;51.112;6.776;2023-02-11T00:48:19;31.93;;;19.67;;
19867;SDS011;10096;51.112;6.776;2023-02-11T00:50:46;29.57;;;20.47;;
19867;SDS011;10096;51.112;6.776;2023-02-11T00:53:13;31.77;;;20.87;;
19867;SDS011;10096;51.112;6.776;2023-02-11T00:55:40;26.70;;;20.03;;
19867;SDS011;10096;51.112;6.776;2023-02-11T00:58:08;28.23;;;20.13;;
19867;SDS011;10096;51.112;6.776;2023-02-11T01:00:35;29.67;;;20.80;;
19867;SDS011;10096;51.112;6.776;2023-02-11T01:03:02;30.10;;;20.90;;
19867;SDS011;10096;51.112;6.776;2023-02-11T01:05:29;28.70;;;20.97;;
19867;SDS011;10096;51.112;6.776;2023-02-11T01:07:56;30.87;;;21.67;;
19867;SDS011;10096;51.112;6.776;2023-02-11T01:10:23;26.83;;;19.90;;
19867;SDS011;10096;51.112;6.776;2023-02-11T01:12:50;30.20;;;21.40;;
19867;SDS011;10096;51.112;6.776;2023-02-11T01:15:19;28.73;;;21.13;;
19867;SDS011;10096;51.112;6.776;2023-02-11T01:17:47;28.80;;;21.43;;
19867;SDS011;10096;51.112;6.776;2023-02-11T01:20:15;27.53;;;21.03;;
19867;SDS011;10096;51.112;6.776;2023-02-11T01:22:45;29.97;;;22.17;;
19867;SDS011;10096;51.112;6.776;2023-02-11T01:25:11;27.60;;;19.97;;
19867;SDS011;10096;51.112;6.776;2023-02-11T01:27:38;28.60;;;21.03;;
19867;SDS011;10096;51.112;6.776;2023-02-11T01:30:06;28.87;;;20.37;;
19867;SDS011;10096;51.112;6.776;2023-02-11T01:32:37;29.50;;;21.07;;
19867;SDS011;10096;51.112;6.776;2023-02-11T01:35:04;32.90;;;21.90;;
19867;SDS011;10096;51.112;6.776;2023-02-11T01:37:32;28.27;;;19.27;;
19867;SDS011;10096;51.112;6.776;2023-02-11T01:39:59;26.87;;;20.27;;
19867;SDS011;10096;51.112;6.776;2023-02-11T01:42:27;29.10;;;21.33;;
19867;SDS011;10096;51.112;6.776;2023-02-11T01:44:56;29.00;;;21.10;;
19867;SDS011;10096;51.112;6.776;2023-02-11T01:47:23;28.13;;;20.80;;
19867;SDS011;10096;51.112;6.776;2023-02-11T01:49:52;28.33;;;19.83;;
19867;SDS011;10096;51.112;6.776;2023-02-11T01:52:23;29.00;;;20.93;;
19867;SDS011;10096;51.112;6.776;2023-02-11T01:54:56;29.80;;;20.90;;
19867;SDS011;10096;51.112;6.776;2023-02-11T01:57:46;32.63;;;21.87;;
19867;SDS011;10096;51.112;6.776;2023-02-11T02:00:17;29.60;;;20.37;;
19867;SDS011;10096;51.112;6.776;2023-02-11T02:02:49;28.10;;;20.77;;
19867;SDS011;10096;51.112;6.776;2023-02-11T02:05:25;29.87;;;21.60;;
19867;SDS011;10096;51.112;6.776;2023-02-11T02:07:59;27.37;;;20.17;;
19867;SDS011;10096;51.112;6.776;2023-02-11T02:10:32;32.13;;;21.50;;
19867;SDS011;10096;51.112;6.776;2023-02-11T02:13:00;36.57;;;22.63;;
19867;SDS011;10096;51.112;6.776;2023-02-11T02:15:28;28.27;;;20.47;;
19867;SDS011;10096;51.112;6.776;2023-02-11T02:18:01;31.37;;;21.43;;
19867;SDS011;10096;51.112;6.776;2023-02-11T02:20:54;29.63;;;21.70;;
19867;SDS011;10096;51.112;6.776;2023-02-11T02:29:52;32.37;;;21.47;;
19867;SDS011;10096;51.112;6.776;2023-02-11T02:32:42;29.03;;;20.23;;
19867;SDS011;10096;51.112;6.776;2023-02-11T02:35:28;30.50;;;21.83;;
19867;SDS011;10096;51.112;6.776;2023-02-11T02:38:01;27.93;;;22.03;;
19867;SDS011;10096;51.112;6.776;2023-02-11T02:40:38;31.30;;;21.33;;
19867;SDS011;10096;51.112;6.776;2023-02-11T02:43:09;26.30;;;19.83;;
19867;SDS011;10096;51.112;6.776;2023-02-11T02:45:36;29.83;;;20.37;;
19867;SDS011;10096;51.112;6.776;2023-02-11T02:48:05;27.17;;;20.23;;
19867;SDS011;10096;51.112;6.776;2023-02-11T02:50:32;26.70;;;20.23;;
19867;SDS011;10096;51.112;6.776;2023-02-11T02:53:08;25.47;;;19.10;;
19867;SDS011;10096;51.112;6.776;2023-02-11T02:55:52;30.90;;;19.27;;
19867;SDS011;10096;51.112;6.776;2023-02-11T02:58:28;29.90;;;19.57;;
19867;SDS011;10096;51.112;6.776;2023-02-11T03:01:19;26.13;;;18.87;;
19867;SDS011;10096;51.112;6.776;2023-02-11T03:03:56;26.97;;;19.30;;
19867;SDS011;10096;51.112;6.776;2023-02-11T03:06:30;27.70;;;20.33;;
19867;SDS011;10096;51.112;6.776;2023-02-11T03:09:03;24.03;;;17.07;;
19867;SDS011;10096;51.112;6.776;2023-02-11T03:11:33;29.50;;;18.67;;
19867;SDS011;10096;51.112;6.776;2023-02-11T03:14:02;26.67;;;18.73;;
19867;SDS011;10096;51.112;6.776;2023-02-11T03:16:33;29.23;;;19.40;;
19867;SDS011;10096;51.112;6.776;2023-02-11T03:19:05;33.50;;;20.27;;
19867;SDS011;10096;51.112;6.776;2023-02-11T03:21:37;27.23;;;19.17;;
19867;SDS011;10096;51.112;6.776;2023-02-11T03:24:06;26.37;;;20.23;;
19867;SDS011;10096;51.112;6.776;2023-02-11T03:26:37;27.20;;;19.17;;
19867;SDS011;10096;51.112;6.776;2023-02-11T03:29:09;26.93;;;19.73;;
19867;SDS011;10096;51.112;6.776;2023-02-11T03:31:43;27.23;;;19.47;;
19867;SDS011;10096;51.112;6.776;2023-02-11T03:34:20;27.83;;;19.27;;
19867;SDS011;10096;51.112;6.776;2023-02-11T03:36:53;26.73;;;20.20;;
19867;SDS011;10096;51.112;6.776;2023-02-11T03:39:26;30.70;;;20.30;;
19867;SDS011;10096;51.112;6.776;2023-02-11T03:41:56;28.67;;;20.13;;
19867;SDS011;10096;51.112;6.776;2023-02-11T03:44:27;30.23;;;22.20;;
19867;SDS011;10096;51.112;6.776;2023-02-11T03:47:01;29.23;;;20.13;;
19867;SDS011;10096;51.112;6.776;2023-02-11T03:49:33;27.30;;;19.70;;
19867;SDS011;10096;51.112;6.776;2023-02-11T03:52:03;25.07;;;19.60;;
19867;SDS011;10096;51.112;6.776;2023-02-11T03:54:35;28.13;;;20.27;;
19867;SDS011;10096;51.112;6.776;2023-02-11T03:57:03;30.20;;;19.27;;
19867;SDS011;10096;51.112;6.776;2023-02-11T03:59:31;25.37;;;19.30;;
19867;SDS011;10096;51.112;6.776;2023-02-11T04:01:58;26.87;;;19.10;;
19867;SDS011;10096;51.112;6.776;2023-02-11T04:04:24;28.67;;;17.90;;
19867;SDS011;10096;51.112;6.776;2023-02-11T04:06:53;26.10;;;19.60;;
19867;SDS011;10096;51.112;6.776;2023-02-11T04:09:20;26.30;;;19.67;;
19867;SDS011;10096;51.112;6.776;2023-02-11T04:11:47;29.23;;;20.77;;
19867;SDS011;10096;51.112;6.776;2023-02-11T04:14:14;25.03;;;18.43;;
19867;SDS011;10096;51.112;6.776;2023-02-11T04:16:41;29.03;;;18.97;;
19867;SDS011;10096;51.112;6.776;2023-02-11T04:19:08;23.43;;;18.63;;
19867;SDS011;10096;51.112;6.776;2023-02-11T04:21:35;30.03;;;19.27;;
19867;SDS011;10096;51.112;6.776;2023-02-11T04:24:03;25.57;;;19.57;;
19867;SDS011;10096;51.112;6.776;2023-02-11T04:26:31;28.43;;;20.57;;
19867;SDS011;10096;51.112;6.776;2023-02-11T04:28:58;29.37;;;19.63;;
19867;SDS011;10096;51.112;6.776;2023-02-11T04:31:25;27.93;;;19.13;;
19867;SDS011;10096;51.112;6.776;2023-02-11T04:33:52;23.93;;;18.77;;
19867;SDS011;10096;51.112;6.776;2023-02-11T04:36:19;29.60;;;18.30;;
19867;SDS011;10096;51.112;6.776;2023-02-11T04:38:46;26.33;;;18.80;;
19867;SDS011;10096;51.112;6.776;2023-02-11T04:41:14;26.93;;;19.40;;
19867;SDS011;10096;51.112;6.776;2023-02-11T04:43:41;29.13;;;19.27;;
19867;SDS011;10096;51.112;6.776;2023-02-11T04:46:08;30.70;;;19.67;;
19867;SDS011;10096;51.112;6.776;2023-02-11T04:48:35;29.37;;;19.77;;
19867;SDS011;10096;51.112;6.776;2023-02-11T04:51:02;27.93;;;19.77;;
19867;SDS011;10096;51.112;6.776;2023-02-11T04:53:29;25.80;;;18.80;;
19867;SDS011;10096;51.112;6.776;2023-02-11T04:55:56;24.43;;;17.80;;
19867;SDS011;10096;51.112;6.776;2023-02-11T04:58:25;29.77;;;18.57;;
19867;SDS011;10096;51.112;6.776;2023-02-11T05:00:52;26.07;;;19.63;;
19867;SDS011;10096;51.112;6.776;2023-02-11T05:03:19;28.07;;;19.67;;
19867;SDS011;10096;51.112;6.776;2023-02-11T05:05:45;30.90;;;19.43;;
19867;SDS011;10096;51.112;6.776;2023-02-11T05:08:12;27.40;;;20.93;;
19867;SDS011;10096;51.112;6.776;2023-02-11T05:10:39;29.23;;;20.07;;
19867;SDS011;10096;51.112;6.776;2023-02-11T05:13:10;30.03;;;18.83;;
19867;SDS011;10096;51.112;6.776;2023-02-11T05:15:39;27.70;;;19.00;;
19867;SDS011;10096;51.112;6.776;2023-02-11T05:18:06;27.43;;;19.43;;
19867;SDS011;10096;51.112;6.776;2023-02-11T05:20:32;27.37;;;19.37;;
19867;SDS011;10096;51.112;6.776;2023-02-11T05:22:59;25.17;;;18.83;;
19867;SDS011;10096;51.112;6.776;2023-02-11T05:25:26;28.40;;;19.67;;
19867;SDS011;10096;51.112;6.776;2023-02-11T05:27:53;32.10;;;20.33;;
19867;SDS011;10096;51.112;6.776;2023-02-11T05:30:20;28.77;;;20.23;;
19867;SDS011;10096;51.112;6.776;2023-02-11T05:32:49;28.10;;;19.37;;
19867;SDS011;10096;51.112;6.776;2023-02-11T05:35:16;34.43;;;20.57;;
19867;SDS011;10096;51.112;6.776;2023-02-11T05:37:43;39.30;;;20.37;;
19867;SDS011;10096;51.112;6.776;2023-02-11T05:40:10;34.47;;;21.13;;
19867;SDS011;10096;51.112;6.776;2023-02-11T05:42:37;29.90;;;21.20;;
19867;SDS011;10096;51.112;6.776;2023-02-11T05:45:04;30.27;;;21.30;;
19867;SDS011;10096;51.112;6.776;2023-02-11T05:47:31;34.47;;;22.03;;
19867;SDS011;10096;51.112;6.776;2023-02-11T05:50:00;31.53;;;20.87;;
19867;SDS011;10096;51.112;6.776;2023-02-11T05:52:27;30.80;;;21.87;;
19867;SDS011;10096;51.112;6.776;2023-02-11T05:54:54;29.43;;;21.93;;
19867;SDS011;10096;51.112;6.776;2023-02-11T05:57:21;31.33;;;21.87;;
19867;SDS011;10096;51.112;6.776;2023-02-11T05:59:48;33.27;;;20.83;;
19867;SDS011;10096;51.112;6.776;2023-02-11T06:02:15;36.43;;;23.10;;
19867;SDS011;10096;51.112;6.776;2023-02-11T06:04:42;35.20;;;21.60;;
19867;SDS011;10096;51.112;6.776;2023-02-11T06:07:10;34.17;;;23.50;;
19867;SDS011;10096;51.112;6.776;2023-02-11T06:09:37;32.73;;;22.80;;
19867;SDS011;10096;51.112;6.776;2023-02-11T06:12:05;31.90;;;22.20;;
19867;SDS011;10096;51.112;6.776;2023-02-11T06:14:32;35.07;;;23.83;;
19867;SDS011;10096;51.112;6.776;2023-02-11T06:16:59;36.03;;;23.40;;
19867;SDS011;10096;51.112;6.776;2023-02-11T06:19:26;36.43;;;25.33;;
19867;SDS011;10096;51.112;6.776;2023-02-11T06:21:54;42.37;;;24.63;;
19867;SDS011;10096;51.112;6.776;2023-02-11T06:24:23;44.63;;;25.83;;
19867;SDS011;10096;51.112;6.776;2023-02-11T06:26:49;43.17;;;27.10;;
19867;SDS011;10096;51.112;6.776;2023-02-11T06:29:16;41.07;;;27.33;;
19867;SDS011;10096;51.112;6.776;2023-02-11T06:31:44;38.77;;;24.80;;
19867;SDS011;10096;51.112;6.776;2023-02-11T06:34:11;33.30;;;22.93;;
19867;SDS011;10096;51.112;6.776;2023-02-11T06:36:38;36.73;;;23.30;;
19867;SDS011;10096;51.112;6.776;2023-02-11T06:39:05;34.53;;;23.70;;
19867;SDS011;10096;51.112;6.776;2023-02-11T06:41:33;37.57;;;24.63;;
19867;SDS011;10096;51.112;6.776;2023-02-11T06:44:00;35.20;;;24.60;;
19867;SDS011;10096;51.112;6.776;2023-02-11T06:46:27;37.60;;;24.50;;
19867;SDS011;10096;51.112;6.776;2023-02-11T06:48:54;35.40;;;25.13;;
19867;SDS011;10096;51.112;6.776;2023-02-11T06:51:21;41.17;;;25.17;;
19867;SDS011;10096;51.112;6.776;2023-02-11T06:53:48;38.83;;;25.83;;
19867;SDS011;10096;51.112;6.776;2023-02-11T06:56:16;33.70;;;24.10;;
19867;SDS011;10096;51.112;6.776;2023-02-11T06:58:50;41.70;;;25.00;;
19867;SDS011;10096;51.112;6.776;2023-02-11T07:01:18;36.20;;;25.03;;
19867;SDS011;10096;51.112;6.776;2023-02-11T07:03:45;40.43;;;25.67;;
19867;SDS011;10096;51.112;6.776;2023-02-11T07:06:13;41.43;;;27.00;;
19867;SDS011;10096;51.112;6.776;2023-02-11T07:08:42;41.43;;;27.70;;
19867;SDS011;10096;51.112;6.776;2023-02-11T07:11:10;42.87;;;26.70;;
19867;SDS011;10096;51.112;6.776;2023-02-11T07:13:37;40.20;;;25.67;;
19867;SDS011;10096;51.112;6.776;2023-02-11T07:16:06;47.23;;;25.37;;
19867;SDS011;10096;51.112;6.776;2023-02-11T07:18:35;41.43;;;25.63;;
19867;SDS011;10096;51.112;6.776;2023-02-11T07:21:03;39.73;;;25.90;;
19867;SDS011;10096;51.112;6.776;2023-02-11T07:23:30;35.60;;;24.73;;
19867;SDS011;10096;51.112;6.776;2023-02-11T07:25:57;41.90;;;25.57;;
19867;SDS011;10096;51.112;6.776;2023-02-11T07:28:28;45.83;;;27.27;;
19867;SDS011;10096;51.112;6.776;2023-02-11T07:30:55;43.07;;;27.47;;
19867;SDS011;10096;51.112;6.776;2023-02-11T07:33:23;63.67;;;40.03;;
19867;SDS011;10096;51.112;6.776;2023-02-11T07:35:50;45.30;;;27.20;;
19867;SDS011;10096;51.112;6.776;2023-02-11T07:38:18;39.20;;;25.10;;
19867;SDS011;10096;51.112;6.776;2023-02-11T07:40:45;45.87;;;28.00;;
19867;SDS011;10096;51.112;6.776;2023-02-11T07:43:11;49.13;;;28.87;;
19867;SDS011;10096;51.112;6.776;2023-02-11T07:45:38;41.77;;;27.07;;
19867;SDS011;10096;51.112;6.776;2023-02-11T07:48:05;51.20;;;29.73;;
19867;SDS011;10096;51.112;6.776;2023-02-11T07:50:33;46.50;;;27.33;;
19867;SDS011;10096;51.112;6.776;2023-02-11T07:53:01;44.47;;;26.23;;
19867;SDS011;10096;51.112;6.776;2023-02-11T07:55:28;38.77;;;25.83;;
19867;SDS011;10096;51.112;6.776;2023-02-11T07:57:55;42.23;;;26.20;;
19867;SDS011;10096;51.112;6.776;2023-02-11T08:00:22;43.10;;;28.03;;
19867;SDS011;10096;51.112;6.776;2023-02-11T08:02:49;47.73;;;27.57;;
19867;SDS011;10096;51.112;6.776;2023-02-11T08:05:16;43.63;;;26.13;;
19867;SDS011;10096;51.112;6.776;2023-02-11T08:07:45;57.70;;;27.57;;
19867;SDS011;10096;51.112;6.776;2023-02-11T08:10:13;49.20;;;27.10;;
19867;SDS011;10096;51.112;6.776;2023-02-11T08:12:40;57.07;;;27.87;;
19867;SDS011;10096;51.112;6.776;2023-02-11T08:15:08;47.63;;;27.30;;
19867;SDS011;10096;51.112;6.776;2023-02-11T08:17:35;43.27;;;29.03;;
19867;SDS011;10096;51.112;6.776;2023-02-11T08:20:02;40.83;;;28.07;;
19867;SDS011;10096;51.112;6.776;2023-02-11T08:22:29;46.43;;;28.67;;
19867;SDS011;10096;51.112;6.776;2023-02-11T08:24:59;48.47;;;27.37;;
19867;SDS011;10096;51.112;6.776;2023-02-11T08:27:26;52.97;;;28.07;;
19867;SDS011;10096;51.112;6.776;2023-02-11T08:29:53;46.57;;;28.03;;
19867;SDS011;10096;51.112;6.776;2023-02-11T08:32:21;45.17;;;28.47;;
19867;SDS011;10096;51.112;6.776;2023-02-11T08:34:49;45.57;;;28.67;;
19867;SDS011;10096;51.112;6.776;2023-02-11T08:37:16;45.23;;;28.57;;
19867;SDS011;10096;51.112;6.776;2023-02-11T08:39:43;52.87;;;29.33;;
19867;SDS011;10096;51.112;6.776;2023-02-11T08:42:13;51.93;;;31.03;;
19867;SDS011;10096;51.112;6.776;2023-02-11T08:45:07;47.33;;;29.00;;
19867;SDS011;10096;51.112;6.776;2023-02-11T08:47:34;46.17;;;27.47;;
19867;SDS011;10096;51.112;6.776;2023-02-11T08:50:02;49.77;;;30.17;;
19867;SDS011;10096;51.112;6.776;2023-02-11T08:52:29;48.93;;;29.40;;
19867;SDS011;10096;51.112;6.776;2023-02-11T08:54:55;52.93;;;31.47;;
19867;SDS011;10096;51.112;6.776;2023-02-11T08:57:24;58.27;;;32.97;;
19867;SDS011;10096;51.112;6.776;2023-02-11T08:59:51;51.83;;;32.07;;
19867;SDS011;10096;51.112;6.776;2023-02-11T09:02:18;57.37;;;34.63;;
19867;SDS011;10096;51.112;6.776;2023-02-11T09:04:45;49.23;;;31.30;;
19867;SDS011;10096;51.112;6.776;2023-02-11T09:07:12;46.97;;;27.80;;
19867;SDS011;10096;51.112;6.776;2023-02-11T09:09:39;50.43;;;30.23;;
19867;SDS011;10096;51.112;6.776;2023-02-11T09:12:06;46.80;;;28.17;;
19867;SDS011;10096;51.112;6.776;2023-02-11T09:14:34;50.50;;;30.50;;
19867;SDS011;10096;51.112;6.776;2023-02-11T09:17:02;44.60;;;29.37;;
19867;SDS011;10096;51.112;6.776;2023-02-11T09:19:29;47.30;;;30.10;;
19867;SDS011;10096;51.112;6.776;2023-02-11T09:21:56;52.10;;;30.13;;
19867;SDS011;10096;51.112;6.776;2023-02-11T09:24:23;45.47;;;28.33;;
19867;SDS011;10096;51.112;6.776;2023-02-11T09:26:50;53.37;;;32.23;;
19867;SDS011;10096;51.112;6.776;2023-02-11T09:29:17;52.50;;;30.93;;
19867;SDS011;10096;51.112;6.776;2023-02-11T09:31:46;51.23;;;29.70;;
19867;SDS011;10096;51.112;6.776;2023-02-11T09:34:13;46.07;;;30.63;;
19867;SDS011;10096;51.112;6.776;2023-02-11T09:36:40;45.20;;;30.80;;
19867;SDS011;10096;51.112;6.776;2023-02-11T09:39:10;46.47;;;30.33;;
19867;SDS011;10096;51.112;6.776;2023-02-11T09:41:46;50.80;;;30.83;;
19867;SDS011;10096;51.112;6.776;2023-02-11T09:44:39;46.17;;;28.87;;
19867;SDS011;10096;51.112;6.776;2023-02-11T09:47:14;49.83;;;30.23;;
19867;SDS011;10096;51.112;6.776;2023-02-11T09:49:49;48.23;;;29.23;;
19867;SDS011;10096;51.112;6.776;2023-02-11T09:52:20;51.80;;;30.30;;
19867;SDS011;10096;51.112;6.776;2023-02-11T09:54:57;49.70;;;30.83;;
19867;SDS011;10096;51.112;6.776;2023-02-11T09:57:25;54.47;;;30.77;;
19867;SDS011;10096;51.112;6.776;2023-02-11T09:59:57;49.47;;;29.50;;
19867;SDS011;10096;51.112;6.776;2023-02-11T10:02:28;52.33;;;28.17;;
19867;SDS011;10096;51.112;6.776;2023-02-11T10:05:12;46.50;;;29.10;;
19867;SDS011;10096;51.112;6.776;2023-02-11T10:07:54;47.37;;;29.13;;
19867;SDS011;10096;51.112;6.776;2023-02-11T10:10:30;47.77;;;29.10;;
19867;SDS011;10096;51.112;6.776;2023-02-11T10:13:29;52.40;;;31.10;;
19867;SDS011;10096;51.112;6.776;2023-02-11T10:16:07;52.83;;;29.53;;
19867;SDS011;10096;51.112;6.776;2023-02-11T10:18:56;46.57;;;29.07;;
19867;SDS011;10096;51.112;6.776;2023-02-11T10:21:44;49.60;;;30.13;;
19867;SDS011;10096;51.112;6.776;2023-02-11T10:24:17;49.40;;;29.87;;
19867;SDS011;10096;51.112;6.776;2023-02-11T10:26:45;46.63;;;29.73;;
19867;SDS011;10096;51.112;6.776;2023-02-11T10:29:16;44.70;;;28.47;;
19867;SDS011;10096;51.112;6.776;2023-02-11T10:31:51;43.03;;;28.07;;
19867;SDS011;10096;51.112;6.776;2023-02-11T10:34:20;47.67;;;29.17;;
19867;SDS011;10096;51.112;6.776;2023-02-11T10:36:47;43.80;;;27.03;;
19867;SDS011;10096;51.112;6.776;2023-02-11T10:39:15;45.10;;;28.30;;
19867;SDS011;10096;51.112;6.776;2023-02-11T10:41:44;41.70;;;27.63;;
19867;SDS011;10096;51.112;6.776;2023-02-11T10:44:17;49.33;;;28.30;;
19867;SDS011;10096;51.112;6.776;2023-02-11T10:46:47;45.47;;;28.07;;
19867;SDS011;10096;51.112;6.776;2023-02-11T10:52:16;45.07;;;27.43;;
19867;SDS011;10096;51.112;6.776;2023-02-11T10:57:32;41.30;;;26.33;;
19867;SDS011;10096;51.112;6.776;2023-02-11T11:00:04;47.30;;;30.10;;
19867;SDS011;10096;51.112;6.776;2023-02-11T11:02:50;44.40;;;27.50;;
19867;SDS011;10096;51.112;6.776;2023-02-11T11:05:22;48.53;;;28.17;;
19867;SDS011;10096;51.112;6.776;2023-02-11T11:07:55;43.13;;;28.30;;
19867;SDS011;10096;51.112;6.776;2023-02-11T11:10:34;45.00;;;28.30;;
19867;SDS011;10096;51.112;6.776;2023-02-11T11:13:22;46.20;;;28.00;;
19867;SDS011;10096;51.112;6.776;2023-02-11T11:16:05;41.83;;;26.70;;
19867;SDS011;10096;51.112;6.776;2023-02-11T11:18:41;43.67;;;28.60;;
19867;SDS011;10096;51.112;6.776;2023-02-11T11:21:12;42.87;;;27.23;;
19867;SDS011;10096;51.112;6.776;2023-02-11T11:23:45;48.60;;;30.97;;
19867;SDS011;10096;51.112;6.776;2023-02-11T11:26:16;51.27;;;31.80;;
19867;SDS011;10096;51.112;6.776;2023-02-11T11:28:52;50.17;;;32.77;;
19867;SDS011;10096;51.112;6.776;2023-02-11T11:31:23;43.03;;;29.00;;
19867;SDS011;10096;51.112;6.776;2023-02-11T11:33:52;45.50;;;29.50;;
19867;SDS011;10096;51.112;6.776;2023-02-11T11:36:24;40.70;;;26.57;;
19867;SDS011;10096;51.112;6.776;2023-02-11T11:38:59;44.17;;;28.93;;
19867;SDS011;10096;51.112;6.776;2023-02-11T11:41:29;44.73;;;28.47;;
19867;SDS011;10096;51.112;6.776;2023-02-11T11:43:59;76.82;;;53.97;;
19867;SDS011;10096;51.112;6.776;2023-02-11T11:46:29;44.27;;;27.90;;
19867;SDS011;10096;51.112;6.776;2023-02-11T11:49:01;41.77;;;28.00;;
19867;SDS011;10096;51.112;6.776;2023-02-11T11:51:36;44.20;;;27.90;;
19867;SDS011;10096;51.112;6.776;2023-02-11T11:54:08;43.50;;;28.27;;
19867;SDS011;10096;51.112;6.776;2023-02-11T11:56:39;39.60;;;27.23;;
19867;SDS011;10096;51.112;6.776;2023-02-11T11:59:14;40.93;;;27.63;;
19867;SDS011;10096;51.112;6.776;2023-02-11T12:01:45;39.43;;;26.40;;
19867;SDS011;10096;51.112;6.776;2023-02-11T12:04:35;41.77;;;28.27;;
19867;SDS011;10096;51.112;6.776;2023-02-11T12:07:21;42.80;;;29.03;;
19867;SDS011;10096;51.112;6.776;2023-02-11T12:10:09;41.70;;;28.33;;
19867;SDS011;10096;51.112;6.776;2023-02-11T12:12:50;43.10;;;28.07;;
19867;SDS011;10096;51.112;6.776;2023-02-11T12:15:24;43.00;;;29.47;;
19867;SDS011;10096;51.112;6.776;2023-02-11T12:18:01;40.30;;;28.17;;
19867;SDS011;10096;51.112;6.776;2023-02-11T12:20:37;42.63;;;28.07;;
19867;SDS011;10096;51.112;6.776;2023-02-11T12:23:25;40.10;;;27.63;;
19867;SDS011;10096;51.112;6.776;2023-02-11T12:26:05;41.55;;;27.98;;
19867;SDS011;10096;51.112;6.776;2023-02-11T12:28:39;46.50;;;28.23;;
19867;SDS011;10096;51.112;6.776;2023-02-11T12:31:20;43.93;;;28.13;;
19867;SDS011;10096;51.112;6.776;2023-02-11T12:34:12;45.60;;;29.08;;
19867;SDS011;10096;51.112;6.776;2023-02-11T12:36:55;43.50;;;28.20;;
19867;SDS011;10096;51.112;6.776;2023-02-11T12:39:36;42.33;;;28.07;;
19867;SDS011;10096;51.112;6.776;2023-02-11T12:45:27;44.37;;;28.27;;
19867;SDS011;10096;51.112;6.776;2023-02-11T12:48:17;45.27;;;28.40;;
19867;SDS011;10096;51.112;6.776;2023-02-11T12:50:53;45.20;;;28.30;;
19867;SDS011;10096;51.112;6.776;2023-02-11T12:53:31;46.17;;;29.90;;
19867;SDS011;10096;51.112;6.776;2023-02-11T12:56:13;47.60;;;29.70;;
19867;SDS011;10096;51.112;6.776;2023-02-11T12:58:44;43.47;;;27.87;;
19867;SDS011;10096;51.112;6.776;2023-02-11T13:01:16;45.10;;;29.63;;
19867;SDS011;10096;51.112;6.776;2023-02-11T13:03:46;47.30;;;31.13;;
19867;SDS011;10096;51.112;6.776;2023-02-11T13:06:17;48.77;;;32.20;;
19867;SDS011;10096;51.112;6.776;2023-02-11T13:08:48;45.97;;;29.57;;
19867;SDS011;10096;51.112;6.776;2023-02-11T13:11:21;43.10;;;30.30;;
19867;SDS011;10096;51.112;6.776;2023-02-11T13:13:51;48.33;;;31.23;;
19867;SDS011;10096;51.112;6.776;2023-02-11T13:16:26;50.77;;;30.83;;
19867;SDS011;10096;51.112;6.776;2023-02-11T13:19:00;51.73;;;31.00;;
19867;SDS011;10096;51.112;6.776;2023-02-11T13:21:36;57.13;;;33.17;;
19867;SDS011;10096;51.112;6.776;2023-02-11T13:24:14;49.70;;;31.33;;
19867;SDS011;10096;51.112;6.776;2023-02-11T13:26:53;52.93;;;31.73;;
19867;SDS011;10096;51.112;6.776;2023-02-11T13:29:28;52.00;;;31.90;;
19867;SDS011;10096;51.112;6.776;2023-02-11T13:32:05;54.17;;;33.27;;
19867;SDS011;10096;51.112;6.776;2023-02-11T13:34:52;56.00;;;32.50;;
19867;SDS011;10096;51.112;6.776;2023-02-11T13:37:22;50.67;;;32.00;;
19867;SDS011;10096;51.112;6.776;2023-02-11T13:39:55;53.65;;;31.80;;
19867;SDS011;10096;51.112;6.776;2023-02-11T13:42:25;55.77;;;34.53;;
19867;SDS011;10096;51.112;6.776;2023-02-11T13:44:52;58.03;;;34.13;;
19867;SDS011;10096;51.112;6.776;2023-02-11T13:47:29;58.40;;;34.00;;
19867;SDS011;10096;51.112;6.776;2023-02-11T13:49:59;51.67;;;32.37;;
19867;SDS011;10096;51.112;6.776;2023-02-11T13:52:28;59.10;;;35.30;;
19867;SDS011;10096;51.112;6.776;2023-02-11T13:54:58;59.42;;;33.80;;
19867;SDS011;10096;51.112;6.776;2023-02-11T13:57:41;60.20;;;35.13;;
19867;SDS011;10096;51.112;6.776;2023-02-11T14:03:20;55.97;;;33.13;;
19867;SDS011;10096;51.112;6.776;2023-02-11T14:06:11;54.50;;;35.00;;
19867;SDS011;10096;51.112;6.776;2023-02-11T14:08:58;58.08;;;33.78;;
19867;SDS011;10096;51.112;6.776;2023-02-11T14:11:43;58.33;;;35.47;;
19867;SDS011;10096;51.112;6.776;2023-02-11T14:14:15;58.03;;;34.85;;
19867;SDS011;10096;51.112;6.776;2023-02-11T14:19:43;56.78;;;32.50;;
19867;SDS011;10096;51.112;6.776;2023-02-11T14:22:14;52.38;;;32.60;;
19867;SDS011;10096;51.112;6.776;2023-02-11T14:24:45;56.47;;;34.83;;
19867;SDS011;10096;51.112;6.776;2023-02-11T14:27:19;52.33;;;32.57;;
19867;SDS011;10096;51.112;6.776;2023-02-11T14:33:00;57.07;;;31.57;;
19867;SDS011;10096;51.112;6.776;2023-02-11T14:35:50;55.93;;;34.10;;
19867;SDS011;10096;51.112;6.776;2023-02-11T14:38:28;50.38;;;31.98;;
19867;SDS011;10096;51.112;6.776;2023-02-11T14:41:03;58.23;;;33.57;;
19867;SDS011;10096;51.112;6.776;2023-02-11T14:43:34;51.47;;;32.47;;
19867;SDS011;10096;51.112;6.776;2023-02-11T14:46:05;52.87;;;33.00;;
19867;SDS011;10096;51.112;6.776;2023-02-11T14:48:33;53.73;;;32.00;;
19867;SDS011;10096;51.112;6.776;2023-02-11T14:51:04;53.17;;;33.60;;
19867;SDS011;10096;51.112;6.776;2023-02-11T14:53:34;51.08;;;32.60;;
19867;SDS011;10096;51.112;6.776;2023-02-11T14:56:14;55.63;;;33.13;;
19867;SDS011;10096;51.112;6.776;2023-02-11T14:58:44;44.78;;;30.27;;
19867;SDS011;10096;51.112;6.776;2023-02-11T15:01:25;47.22;;;32.42;;
19867;SDS011;10096;51.112;6.776;2023-02-11T15:03:55;51.13;;;31.67;;
19867;SDS011;10096;51.112;6.776;2023-02-11T15:06:23;48.47;;;32.13;;
19867;SDS011;10096;51.112;6.776;2023-02-11T15:08:54;53.58;;;33.47;;